createdAt,value
2022-11-26T00:00:28.030Z,9.45
2022-11-26T00:02:54.773Z,13.77
2022-11-26T00:05:22.474Z,8.80
2022-11-26T00:07:55.468Z,6.47
2022-11-26T00:12:50.205Z,7.88
2022-11-26T00:15:21.420Z,8.93
2022-11-26T00:17:49.602Z,10.82
2022-11-26T00:20:17.815Z,8.20
2022-11-26T00:22:55.999Z,7.80
2022-11-26T00:25:26.097Z,10.23
2022-11-26T00:27:54.176Z,11.57
2022-11-26T00:30:25.106Z,7.60
2022-11-26T00:32:52.682Z,8.48
2022-11-26T00:35:20.127Z,10.70
2022-11-26T00:37:55.211Z,9.77
2022-11-26T00:40:32.087Z,6.00
2022-11-26T00:43:01.905Z,6.00
2022-11-26T00:45:30.854Z,6.97
2022-11-26T00:47:57.400Z,5.82
2022-11-26T00:50:26.704Z,9.32
2022-11-26T00:52:55.257Z,8.23
2022-11-26T00:55:34.250Z,6.32
2022-11-26T00:58:01.072Z,7.68
2022-11-26T01:00:30.708Z,8.90
2022-11-26T01:02:58.191Z,11.32
2022-11-26T01:05:30.410Z,9.15
2022-11-26T01:08:00.206Z,7.45
2022-11-26T01:10:29.050Z,8.23
2022-11-26T01:12:56.449Z,7.93
2022-11-26T01:15:26.068Z,9.43
2022-11-26T01:17:52.988Z,9.13
2022-11-26T01:20:27.710Z,8.05
2022-11-26T01:22:55.950Z,8.65
2022-11-26T01:25:23.454Z,5.70
2022-11-26T01:27:50.050Z,10.45
2022-11-26T01:30:29.476Z,7.40
2022-11-26T01:32:56.066Z,6.82
2022-11-26T01:35:22.967Z,7.35
2022-11-26T01:37:49.847Z,8.75
2022-11-26T01:40:25.270Z,5.35
2022-11-26T01:43:10.071Z,10.05
2022-11-26T01:45:36.508Z,6.63
2022-11-26T01:48:39.223Z,9.52
2022-11-26T01:51:09.834Z,4.70
2022-11-26T01:53:55.070Z,8.55
2022-11-26T01:56:38.532Z,10.63
2022-11-26T01:59:12.494Z,9.18
2022-11-26T02:01:39.102Z,10.02
2022-11-26T02:04:28.000Z,9.90
2022-11-26T02:06:55.803Z,10.55
2022-11-26T02:09:24.758Z,10.40
2022-11-26T02:11:51.164Z,8.02
2022-11-26T02:14:25.841Z,7.65
2022-11-26T02:17:06.150Z,8.13
2022-11-26T02:19:50.194Z,7.45
2022-11-26T02:22:38.385Z,7.22
2022-11-26T02:25:43.376Z,7.82
2022-11-26T02:28:27.074Z,8.27
2022-11-26T02:31:38.397Z,5.97
2022-11-26T02:34:21.311Z,5.50
2022-11-26T02:36:50.996Z,10.77
2022-11-26T02:39:21.142Z,8.60
2022-11-26T02:41:54.392Z,6.72
2022-11-26T02:44:26.987Z,9.20
2022-11-26T02:47:06.123Z,5.75
2022-11-26T02:49:34.336Z,8.35
2022-11-26T02:52:04.709Z,5.90
2022-11-26T02:54:33.027Z,5.82
2022-11-26T02:57:01.969Z,7.22
2022-11-26T02:59:29.379Z,7.55
2022-11-26T03:02:30.814Z,7.22
2022-11-26T03:05:00.865Z,8.57
2022-11-26T03:07:29.961Z,7.38
2022-11-26T03:09:58.948Z,6.03
2022-11-26T03:12:26.251Z,8.18
2022-11-26T03:14:53.148Z,5.70
2022-11-26T03:17:20.938Z,6.63
2022-11-26T03:19:47.647Z,12.68
2022-11-26T03:22:15.057Z,8.00
2022-11-26T03:24:41.796Z,9.52
2022-11-26T03:27:08.427Z,7.75
2022-11-26T03:29:34.781Z,12.15
2022-11-26T03:32:01.252Z,7.88
2022-11-26T03:34:27.657Z,8.15
2022-11-26T03:36:53.985Z,10.40
2022-11-26T03:39:20.371Z,7.95
2022-11-26T03:41:46.734Z,11.40
2022-11-26T03:44:13.754Z,11.02
2022-11-26T03:46:40.261Z,10.05
2022-11-26T03:49:07.120Z,7.15
2022-11-26T03:51:33.660Z,8.63
2022-11-26T03:54:00.039Z,7.53
2022-11-26T03:56:26.368Z,8.20
2022-11-26T03:58:52.738Z,8.50
2022-11-26T04:01:19.249Z,11.93
2022-11-26T04:03:45.713Z,9.68
2022-11-26T04:06:12.197Z,8.40
2022-11-26T04:08:38.557Z,10.25
2022-11-26T04:11:06.091Z,8.75
2022-11-26T04:13:32.575Z,8.35
2022-11-26T04:15:58.989Z,8.20
2022-11-26T04:18:25.449Z,8.20
2022-11-26T04:20:53.472Z,7.15
2022-11-26T04:23:20.295Z,7.82
2022-11-26T04:25:46.869Z,6.45
2022-11-26T04:28:14.957Z,6.88
2022-11-26T04:30:42.150Z,10.38
2022-11-26T04:33:08.707Z,5.22
2022-11-26T04:35:35.068Z,7.22
2022-11-26T04:38:01.600Z,8.85
2022-11-26T04:40:27.934Z,7.93
2022-11-26T04:42:54.285Z,8.30
2022-11-26T04:45:20.692Z,7.05
2022-11-26T04:47:47.148Z,7.38
2022-11-26T04:50:13.609Z,5.88
2022-11-26T04:52:39.971Z,5.68
2022-11-26T04:55:06.451Z,5.50
2022-11-26T04:57:32.871Z,6.72
2022-11-26T04:59:59.190Z,5.78
2022-11-26T05:02:25.670Z,6.57
2022-11-26T05:04:52.159Z,7.88
2022-11-26T05:07:18.663Z,8.65
2022-11-26T05:09:45.103Z,8.48
2022-11-26T05:12:12.610Z,6.22
2022-11-26T05:14:39.119Z,6.60
2022-11-26T05:17:05.779Z,4.97
2022-11-26T05:19:34.076Z,8.38
2022-11-26T05:22:00.477Z,5.20
2022-11-26T05:24:26.915Z,9.18
2022-11-26T05:26:56.893Z,6.13
2022-11-26T05:29:24.238Z,5.78
2022-11-26T05:31:50.818Z,6.57
2022-11-26T05:34:18.670Z,6.70
2022-11-26T05:36:45.083Z,9.52
2022-11-26T05:39:11.631Z,7.88
2022-11-26T05:41:38.163Z,5.45
2022-11-26T05:44:04.905Z,8.77
2022-11-26T05:46:31.324Z,6.50
2022-11-26T05:48:57.748Z,6.45
2022-11-26T05:51:24.160Z,6.18
2022-11-26T05:53:50.545Z,5.72
2022-11-26T05:56:16.976Z,4.90
2022-11-26T05:58:43.620Z,6.90
2022-11-26T06:01:10.689Z,6.47
2022-11-26T06:03:37.660Z,10.00
2022-11-26T06:06:05.051Z,9.68
2022-11-26T06:08:31.625Z,11.23
2022-11-26T06:10:58.020Z,14.27
2022-11-26T06:13:24.822Z,9.05
2022-11-26T06:15:51.621Z,7.63
2022-11-26T06:18:18.122Z,10.02
2022-11-26T06:20:44.958Z,8.90
2022-11-26T06:23:11.684Z,7.22
2022-11-26T06:25:41.789Z,7.53
2022-11-26T06:28:08.219Z,7.28
2022-11-26T06:30:34.555Z,6.97
2022-11-26T06:33:00.976Z,12.05
2022-11-26T06:35:27.477Z,11.20
2022-11-26T06:37:53.848Z,6.15
2022-11-26T06:40:20.713Z,8.88
2022-11-26T06:42:51.684Z,8.07
2022-11-26T06:45:18.996Z,8.48
2022-11-26T06:47:47.278Z,10.07
2022-11-26T06:50:15.035Z,8.48
2022-11-26T06:52:41.479Z,11.48
2022-11-26T06:55:08.400Z,9.27
2022-11-26T06:57:34.825Z,6.80
2022-11-26T07:00:01.232Z,5.45
2022-11-26T07:02:27.845Z,7.05
2022-11-26T07:04:54.360Z,8.50
2022-11-26T07:07:20.790Z,11.48
2022-11-26T07:09:47.288Z,8.48
2022-11-26T07:12:13.739Z,8.80
2022-11-26T07:14:40.642Z,7.43
2022-11-26T07:17:07.297Z,9.35
2022-11-26T07:19:33.627Z,8.43
2022-11-26T07:21:59.964Z,10.20
2022-11-26T07:24:26.340Z,7.05
2022-11-26T07:26:54.092Z,8.15
2022-11-26T07:29:20.520Z,7.32
2022-11-26T07:31:46.958Z,8.05
2022-11-26T07:34:13.494Z,9.43
2022-11-26T07:36:43.005Z,7.55
2022-11-26T07:39:11.526Z,9.60
2022-11-26T07:41:38.793Z,8.50
2022-11-26T07:44:05.335Z,9.77
2022-11-26T07:46:32.020Z,11.63
2022-11-26T07:48:58.522Z,6.60
2022-11-26T07:51:27.843Z,7.30
2022-11-26T07:53:55.019Z,9.10
2022-11-26T07:56:21.779Z,13.82
2022-11-26T07:58:48.569Z,10.15
2022-11-26T08:01:17.928Z,7.65
2022-11-26T08:03:46.722Z,9.98
2022-11-26T08:06:17.115Z,7.80
2022-11-26T08:08:43.650Z,10.77
2022-11-26T08:11:16.355Z,11.45
2022-11-26T08:13:44.162Z,9.48
2022-11-26T08:16:11.182Z,8.98
2022-11-26T08:18:37.918Z,11.20
2022-11-26T08:21:04.831Z,11.95
2022-11-26T08:23:31.827Z,8.55
2022-11-26T08:26:21.666Z,10.65
2022-11-26T08:28:46.501Z,11.82
2022-11-26T08:31:14.904Z,16.27
2022-11-26T08:33:41.508Z,13.85
2022-11-26T08:36:09.039Z,10.45
2022-11-26T08:38:36.647Z,14.20
2022-11-26T08:41:05.879Z,13.98
2022-11-26T08:43:58.745Z,13.05
2022-11-26T08:46:21.781Z,17.67
2022-11-26T08:48:48.185Z,14.88
2022-11-26T08:51:14.580Z,12.65
2022-11-26T08:53:40.934Z,16.23
2022-11-26T08:56:10.134Z,15.27
2022-11-26T08:58:39.378Z,15.13
2022-11-26T09:01:11.080Z,11.90
2022-11-26T09:03:38.287Z,11.93
2022-11-26T09:06:06.832Z,12.30
2022-11-26T09:08:44.884Z,9.82
2022-11-26T09:11:12.100Z,12.00
2022-11-26T09:13:38.447Z,11.65
2022-11-26T09:16:05.335Z,9.65
2022-11-26T09:18:31.735Z,10.23
2022-11-26T09:21:02.350Z,7.95
2022-11-26T09:23:29.014Z,12.55
2022-11-26T09:25:55.386Z,9.93
2022-11-26T09:28:21.735Z,9.88
2022-11-26T09:30:48.118Z,12.82
2022-11-26T09:33:14.844Z,12.38
2022-11-26T09:35:41.200Z,12.90
2022-11-26T09:38:07.886Z,11.13
2022-11-26T09:40:54.018Z,8.95
2022-11-26T09:43:44.236Z,9.95
2022-11-26T09:46:13.691Z,11.73
2022-11-26T09:48:41.000Z,16.20
2022-11-26T09:51:13.522Z,11.00
2022-11-26T09:53:47.143Z,13.23
2022-11-26T09:56:19.884Z,10.52
2022-11-26T09:58:57.535Z,9.25
2022-11-26T10:01:25.094Z,11.95
2022-11-26T10:03:52.408Z,8.52
2022-11-26T10:06:41.348Z,8.77
2022-11-26T10:09:21.305Z,9.35
2022-11-26T10:12:24.623Z,9.32
2022-11-26T10:15:14.075Z,15.50
2022-11-26T10:18:17.199Z,13.25
2022-11-26T10:20:51.892Z,14.15
2022-11-26T10:23:29.210Z,9.63
2022-11-26T10:26:12.078Z,9.68
2022-11-26T10:28:44.711Z,12.43
2022-11-26T10:31:32.784Z,11.57
2022-11-26T10:34:03.731Z,9.80
2022-11-26T10:36:37.340Z,11.00
2022-11-26T10:39:04.120Z,13.20
2022-11-26T10:41:35.240Z,16.33
2022-11-26T10:44:33.594Z,16.85
2022-11-26T10:47:19.804Z,15.63
2022-11-26T10:49:46.206Z,16.95
2022-11-26T10:52:17.405Z,13.27
2022-11-26T10:54:45.065Z,13.93
2022-11-26T10:57:17.137Z,16.95
2022-11-26T10:59:43.553Z,16.90
2022-11-26T11:02:32.735Z,13.77
2022-11-26T11:05:03.371Z,15.73
2022-11-26T11:07:34.299Z,13.68
2022-11-26T11:10:08.050Z,13.18
2022-11-26T11:12:40.079Z,14.05
2022-11-26T11:15:27.694Z,16.27
2022-11-26T11:18:19.466Z,14.88
2022-11-26T11:20:55.755Z,10.80
2022-11-26T11:23:52.184Z,12.23
2022-11-26T11:26:21.256Z,14.23
2022-11-26T11:28:50.903Z,11.30
2022-11-26T11:31:20.935Z,12.20
2022-11-26T11:33:48.487Z,12.77
2022-11-26T11:36:17.513Z,13.98
2022-11-26T11:39:00.568Z,9.98
2022-11-26T11:41:39.494Z,13.55
2022-11-26T11:44:14.976Z,9.65
2022-11-26T11:47:03.619Z,10.13
2022-11-26T11:49:44.593Z,8.57
2022-11-26T11:52:32.506Z,7.82
2022-11-26T11:55:10.257Z,8.07
2022-11-26T11:57:51.474Z,7.65
2022-11-26T12:00:21.443Z,12.05
2022-11-26T12:03:00.978Z,6.70
2022-11-26T12:05:34.034Z,7.13
2022-11-26T12:11:11.920Z,7.53
2022-11-26T12:13:47.621Z,12.38
2022-11-26T12:16:16.735Z,18.58
2022-11-26T12:18:56.009Z,11.70
2022-11-26T12:21:46.718Z,15.95
2022-11-26T12:24:16.734Z,8.93
2022-11-26T12:26:50.803Z,9.98
2022-11-26T12:29:35.695Z,9.13
2022-11-26T12:32:36.040Z,10.52
2022-11-26T12:35:29.346Z,8.23
2022-11-26T12:38:13.460Z,8.18
2022-11-26T12:40:53.937Z,5.85
2022-11-26T12:43:29.573Z,6.97
2022-11-26T12:46:08.749Z,6.55
2022-11-26T12:48:42.791Z,9.00
2022-11-26T12:51:30.911Z,9.52
2022-11-26T12:54:22.015Z,10.02
2022-11-26T12:56:57.244Z,10.63
2022-11-26T12:59:31.470Z,11.82
2022-11-26T13:01:58.687Z,8.65
2022-11-26T13:04:43.300Z,13.82
2022-11-26T13:07:22.757Z,9.85
2022-11-26T13:10:10.241Z,9.68
2022-11-26T13:13:19.388Z,7.47
2022-11-26T13:16:02.597Z,7.20
2022-11-26T13:18:43.277Z,9.07
2022-11-26T13:21:09.677Z,13.90
2022-11-26T13:23:56.985Z,8.55
2022-11-26T13:26:41.451Z,11.45
2022-11-26T13:29:29.717Z,9.10
2022-11-26T13:32:25.917Z,10.10
2022-11-26T13:35:03.824Z,7.82
2022-11-26T13:37:54.429Z,8.18
2022-11-26T13:40:26.808Z,6.53
2022-11-26T13:43:18.111Z,9.82
2022-11-26T13:46:04.618Z,9.60
2022-11-26T13:48:36.598Z,11.63
2022-11-26T13:51:13.471Z,15.57
2022-11-26T13:53:50.245Z,10.63
2022-11-26T13:56:23.764Z,7.50
2022-11-26T13:58:57.873Z,8.57
2022-11-26T14:01:40.885Z,9.38
2022-11-26T14:04:15.539Z,16.38
2022-11-26T14:09:47.497Z,15.35
2022-11-26T14:12:15.381Z,35.63
2022-11-26T14:14:43.206Z,28.52
2022-11-26T14:17:22.089Z,22.73
2022-11-26T14:19:48.452Z,18.42
2022-11-26T14:22:21.147Z,15.50
2022-11-26T14:24:47.598Z,16.30
2022-11-26T14:27:18.305Z,15.15
2022-11-26T14:29:54.338Z,11.55
2022-11-26T14:32:24.550Z,13.07
2022-11-26T14:34:57.809Z,10.95
2022-11-26T14:37:27.202Z,13.20
2022-11-26T14:40:03.212Z,14.43
2022-11-26T14:42:29.886Z,12.07
2022-11-26T14:45:16.601Z,9.73
2022-11-26T14:47:49.819Z,8.68
2022-11-26T14:50:19.244Z,10.52
2022-11-26T14:52:46.075Z,7.93
2022-11-26T14:55:15.565Z,9.98
2022-11-26T14:57:45.179Z,6.65
2022-11-26T15:00:16.027Z,7.07
2022-11-26T15:02:45.658Z,6.57
2022-11-26T15:05:17.877Z,6.95
2022-11-26T15:07:45.346Z,6.68
2022-11-26T15:10:14.762Z,6.18
2022-11-26T15:12:42.824Z,7.72
2022-11-26T15:15:14.451Z,6.90
2022-11-26T15:17:44.699Z,4.20
2022-11-26T15:20:16.323Z,7.03
2022-11-26T15:23:14.643Z,5.53
2022-11-26T15:25:50.054Z,6.85
2022-11-26T15:28:19.039Z,5.57
2022-11-26T15:31:03.121Z,7.82
2022-11-26T15:33:33.556Z,7.95
2022-11-26T15:36:00.254Z,6.63
2022-11-26T15:38:29.667Z,8.27
2022-11-26T15:41:02.011Z,5.20
2022-11-26T15:43:33.592Z,5.32
2022-11-26T15:46:11.492Z,8.45
2022-11-26T15:48:52.366Z,5.68
2022-11-26T15:51:38.549Z,5.45
2022-11-26T15:54:19.203Z,4.20
2022-11-26T15:56:50.063Z,7.70
2022-11-26T15:59:17.354Z,5.30
2022-11-26T16:01:45.919Z,6.00
2022-11-26T16:04:38.225Z,8.60
2022-11-26T16:07:32.414Z,5.00
2022-11-26T16:10:19.128Z,7.05
2022-11-26T16:13:07.167Z,6.45
2022-11-26T16:15:34.484Z,7.80
2022-11-26T16:18:04.209Z,10.15
2022-11-26T16:20:30.640Z,8.18
2022-11-26T16:23:00.252Z,9.38
2022-11-26T16:25:29.777Z,6.72
2022-11-26T16:28:17.541Z,9.43
2022-11-26T16:30:44.097Z,6.55
2022-11-26T16:33:11.017Z,6.75
2022-11-26T16:35:46.553Z,5.55
2022-11-26T16:38:21.797Z,4.10
2022-11-26T16:40:49.021Z,13.27
2022-11-26T16:43:15.683Z,7.07
2022-11-26T16:45:42.124Z,12.48
2022-11-26T16:48:26.192Z,10.77
2022-11-26T16:50:54.928Z,9.90
2022-11-26T16:53:21.637Z,9.05
2022-11-26T16:55:49.913Z,8.18
2022-11-26T16:58:26.178Z,7.13
2022-11-26T17:00:53.319Z,6.85
2022-11-26T17:03:22.458Z,6.72
2022-11-26T17:05:51.435Z,8.55
2022-11-26T17:08:18.273Z,6.00
2022-11-26T17:10:50.726Z,7.93
2022-11-26T17:13:17.654Z,6.82
2022-11-26T17:15:44.280Z,6.97
2022-11-26T17:18:22.335Z,3.05
2022-11-26T17:20:49.465Z,8.80
2022-11-26T17:23:16.400Z,10.63
2022-11-26T17:25:44.708Z,9.85
2022-11-26T17:28:13.134Z,6.32
2022-11-26T17:30:40.545Z,7.97
2022-11-26T17:33:08.275Z,11.10
2022-11-26T17:35:34.957Z,6.18
2022-11-26T17:38:01.598Z,4.70
2022-11-26T17:40:29.542Z,7.70
2022-11-26T17:42:56.331Z,7.80
2022-11-26T17:45:22.983Z,7.85
2022-11-26T17:47:49.562Z,9.23
2022-11-26T17:50:23.263Z,6.75
2022-11-26T17:52:50.005Z,5.47
2022-11-26T17:55:18.057Z,8.55
2022-11-26T17:57:44.609Z,6.90
2022-11-26T18:00:21.098Z,7.50
2022-11-26T18:02:47.910Z,10.60
2022-11-26T18:05:14.683Z,10.13
2022-11-26T18:07:41.566Z,10.65
2022-11-26T18:10:13.212Z,7.50
2022-11-26T18:12:40.121Z,10.80
2022-11-26T18:15:07.227Z,9.02
2022-11-26T18:17:34.119Z,6.63
2022-11-26T18:20:00.615Z,10.68
2022-11-26T18:22:28.009Z,10.65
2022-11-26T18:24:56.873Z,11.55
2022-11-26T18:27:26.177Z,9.93
2022-11-26T18:29:52.622Z,8.30
2022-11-26T18:32:19.155Z,11.02
2022-11-26T18:34:45.769Z,13.25
2022-11-26T18:37:12.377Z,11.80
2022-11-26T18:39:39.186Z,8.07
2022-11-26T18:42:35.418Z,9.50
2022-11-26T18:44:52.592Z,11.35
2022-11-26T18:47:18.935Z,11.55
2022-11-26T18:49:47.632Z,9.45
2022-11-26T18:52:14.365Z,8.15
2022-11-26T18:54:40.826Z,9.07
2022-11-26T18:57:07.164Z,9.68
2022-11-26T18:59:33.606Z,9.20
2022-11-26T19:02:00.205Z,14.55
2022-11-26T19:04:26.650Z,10.43
2022-11-26T19:06:53.061Z,9.02
2022-11-26T19:09:20.538Z,8.82
2022-11-26T19:11:48.003Z,11.90
2022-11-26T19:14:16.926Z,13.45
2022-11-26T19:16:43.890Z,9.88
2022-11-26T19:19:10.731Z,11.55
2022-11-26T19:21:37.135Z,10.80
2022-11-26T19:24:06.885Z,10.13
2022-11-26T19:26:33.767Z,13.82
2022-11-26T19:29:05.055Z,13.82
2022-11-26T19:31:36.280Z,10.85
2022-11-26T19:34:08.868Z,11.68
2022-11-26T19:36:36.595Z,12.15
2022-11-26T19:39:04.933Z,13.32
2022-11-26T19:41:31.722Z,11.90
2022-11-26T19:44:00.420Z,9.57
2022-11-26T19:46:27.867Z,13.57
2022-11-26T19:48:55.404Z,11.18
2022-11-26T19:51:23.835Z,14.88
2022-11-26T19:53:51.834Z,12.77
2022-11-26T19:56:24.329Z,13.05
2022-11-26T19:58:53.656Z,13.75
2022-11-26T20:01:21.279Z,11.88
2022-11-26T20:03:47.796Z,12.57
2022-11-26T20:06:20.269Z,19.45
2022-11-26T20:08:48.069Z,15.75
2022-11-26T20:11:16.320Z,14.30
2022-11-26T20:13:44.309Z,16.63
2022-11-26T20:16:14.043Z,13.75
2022-11-26T20:18:41.346Z,14.95
2022-11-26T20:21:10.797Z,14.18
2022-11-26T20:23:38.538Z,15.05
2022-11-26T20:26:14.435Z,12.35
2022-11-26T20:28:41.112Z,15.60
2022-11-26T20:31:07.604Z,19.50
2022-11-26T20:33:35.246Z,20.52
2022-11-26T20:36:08.787Z,18.23
2022-11-26T20:38:35.517Z,20.00
2022-11-26T20:41:09.769Z,16.40
2022-11-26T20:43:36.956Z,17.02
2022-11-26T20:46:05.621Z,18.58
2022-11-26T20:48:34.175Z,18.58
2022-11-26T20:51:02.777Z,17.15
2022-11-26T20:53:30.095Z,16.92
2022-11-26T20:55:57.066Z,23.83
2022-11-26T20:58:25.431Z,18.23
2022-11-26T21:00:54.305Z,18.25
2022-11-26T21:03:22.669Z,16.60
2022-11-26T21:05:49.779Z,17.88
2022-11-26T21:08:17.272Z,16.70
2022-11-26T21:10:43.972Z,17.05
2022-11-26T21:13:13.666Z,16.70
2022-11-26T21:15:42.203Z,17.33
2022-11-26T21:18:09.546Z,13.73
2022-11-26T21:20:41.023Z,17.75
2022-11-26T21:23:09.039Z,18.55
2022-11-26T21:25:38.227Z,15.70
2022-11-26T21:28:06.604Z,17.02
2022-11-26T21:30:35.238Z,18.55
2022-11-26T21:33:08.730Z,14.68
2022-11-26T21:38:02.241Z,16.70
2022-11-26T21:40:29.053Z,15.13
2022-11-26T21:42:55.604Z,15.15
2022-11-26T21:45:22.591Z,15.95
2022-11-26T21:47:51.049Z,14.77
2022-11-26T21:50:18.716Z,16.15
2022-11-26T21:52:45.290Z,14.75
2022-11-26T21:55:12.028Z,14.10
2022-11-26T21:57:38.352Z,18.55
2022-11-26T22:00:05.453Z,19.08
2022-11-26T22:02:31.939Z,17.98
2022-11-26T22:04:58.413Z,19.08
2022-11-26T22:07:24.991Z,18.33
2022-11-26T22:09:51.896Z,17.20
2022-11-26T22:12:18.205Z,17.63
2022-11-26T22:14:44.606Z,19.88
2022-11-26T22:17:10.952Z,17.27
2022-11-26T22:19:38.045Z,16.83
2022-11-26T22:22:04.724Z,21.42
2022-11-26T22:24:31.244Z,16.25
2022-11-26T22:27:01.738Z,17.98
2022-11-26T22:29:30.456Z,18.88
2022-11-26T22:31:56.988Z,18.23
2022-11-26T22:34:24.477Z,20.70
2022-11-26T22:36:50.905Z,15.55
2022-11-26T22:39:18.275Z,18.33
2022-11-26T22:41:46.421Z,16.38
2022-11-26T22:44:14.178Z,18.50
2022-11-26T22:46:40.667Z,16.25
2022-11-26T22:49:10.734Z,15.93
2022-11-26T22:51:37.174Z,16.38
2022-11-26T22:54:09.385Z,22.17
2022-11-26T22:56:37.648Z,15.63
2022-11-26T22:59:05.377Z,19.38
2022-11-26T23:01:33.668Z,16.48
2022-11-26T23:04:01.901Z,21.38
2022-11-26T23:06:30.208Z,13.88
2022-11-26T23:08:58.483Z,17.13
2022-11-26T23:11:33.478Z,17.10
2022-11-26T23:14:01.940Z,16.88
2022-11-26T23:16:28.584Z,16.10
2022-11-26T23:18:56.995Z,18.80
2022-11-26T23:21:29.186Z,14.90
2022-11-26T23:23:56.146Z,15.85
2022-11-26T23:26:28.877Z,17.00
2022-11-26T23:28:57.252Z,15.25
2022-11-26T23:31:26.513Z,14.57
2022-11-26T23:33:53.528Z,15.80
2022-11-26T23:36:21.527Z,18.88
2022-11-26T23:38:48.011Z,14.93
2022-11-26T23:41:15.183Z,18.40
2022-11-26T23:43:42.198Z,22.98
2022-11-26T23:46:20.958Z,17.85
2022-11-26T23:48:48.267Z,16.08
2022-11-26T23:51:23.847Z,16.02
2022-11-26T23:53:50.885Z,15.63
2022-11-26T23:56:23.138Z,18.35
2022-11-26T23:58:50.857Z,13.30
